Flight Track Log - Related Links

Times and Time Zones

All times are in EDT time to prevent confusion due to time zone crossing. See the RAX500 flight status page for this flight to view local times or setup timezone preferences in your user account.


Time Position Orientation Groundspeed Altitude Reporting Facility
EDT Latitude Longitude Course Direction KTS MPH feet Rate Location/Type
Fri 09:19:04 AM 42.6664 -83.3589 78° East 182 209 2,700  Level Cleveland Center
Fri 09:20:00 AM 42.6786 -83.2831 78° East 241 277 4,400 2,165 Climbing Cleveland Center
Fri 09:20:41 AM 42.6947 -83.2161 72° East 267 307 6,200 2,949 Climbing Cleveland Center
Fri 09:20:59 AM 42.6914 -83.1878 99° East 264 304 7,300 3,114 Climbing Cleveland Center
Fri 09:22:00 AM 42.6472 -83.1097 128° Southeast 272 313 10,300 2,380 Climbing Cleveland Center
Fri 09:23:00 AM 42.5967 -83.0314 131° Southeast 272 313 12,100 958 Climbing Cleveland Center
Fri 09:23:59 AM 42.5381 -82.9475 133° Southeast 288 331 12,200 650 Climbing Cleveland Center
Fri 09:25:00 AM 42.4753 -82.8578 133° Southeast 308 354 13,400 1,190 Climbing Cleveland Center
Fri 09:26:00 AM 42.4183 -82.7742 133° Southeast 324 373 14,600 1,513 Climbing Cleveland Center
Fri 09:26:59 AM 42.3536 -82.6736 131° Southeast 335 386 16,400 1,650 Climbing Cleveland Center
Fri 09:28:00 AM 42.2908 -82.5678 129° Southeast 355 409 17,900 1,600 Climbing Cleveland Center
Fri 09:29:59 AM 42.1481 -82.3783 135° Southeast 356 410 21,200 1,567 Climbing Cleveland Center
Fri 09:31:00 AM 42.0575 -82.3086 150° Southeast 366 421 22,600 1,438 Climbing Cleveland Center
Fri 09:32:00 AM 41.9647 -82.2364 150° Southeast 378 435 24,100 1,361 Climbing Cleveland Center
Fri 09:32:59 AM 41.8656 -82.1753 155° Southeast 388 447 25,300 1,350 Climbing Cleveland Center
Fri 09:34:00 AM 41.7581 -82.0975 152° Southeast 394 453 26,800 1,500 Climbing Cleveland Center
Fri 09:34:59 AM 41.6653 -82.0258 150° Southeast 394 453 28,300 1,361 Climbing Cleveland Center
Fri 09:35:59 AM 41.5681 -81.9597 153° Southeast 389 448 29,500 1,100 Climbing Cleveland Center
Fri 09:36:59 AM 41.4689 -81.8828 150° Southeast 395 455 30,500 950 Climbing Cleveland Center
Fri 09:37:59 AM 41.3761 -81.8033 147° Southeast 400 460 31,400 900 Climbing Cleveland Center
Fri 09:38:59 AM 41.2767 -81.7297 151° Southeast 400 460 32,300 744 Climbing Cleveland Center
Fri 09:40:00 AM 41.1794 -81.6481 148° Southeast 400 460 32,900 400 Climbing Cleveland Center
Fri 09:40:59 AM 41.0697 -81.5719 152° Southeast 428 493 33,100 555 Climbing Cleveland Center
Fri 09:41:59 AM 40.9789 -81.4742 141° Southeast 436 502 34,000 843 Climbing Cleveland Center
Fri 09:43:00 AM 40.8961 -81.3633 135° Southeast 423 487 34,800 500 Climbing Cleveland Center
Fri 09:43:59 AM 40.8094 -81.2553 137° Southeast 423 487 35,000 50 Climbing Cleveland Center
Fri 09:45:00 AM 40.7139 -81.1556 142° Southeast 429 494 34,900  Descending Cleveland Center
Fri 09:46:00 AM 40.6269 -81.0672 142° Southeast 439 505 35,000 50 Climbing Cleveland Center
Fri 09:46:59 AM 40.5253 -80.9519 139° Southeast 439 505 35,000  Level Cleveland Center
Fri 09:47:59 AM 40.4294 -80.8531 142° Southeast 445 512 35,000  Level Cleveland Center
Fri 09:49:00 AM 40.3317 -80.7464 140° Southeast 445 512 35,000  Level Cleveland Center
Fri 09:49:59 AM 40.2464 -80.6511 140° Southeast 445 512 35,000  Level Cleveland Center
Fri 09:51:00 AM 40.1525 -80.5450 139° Southeast 450 518 35,000  Level Cleveland Center
Fri 09:52:00 AM 40.0567 -80.4367 139° Southeast 455 524 35,000 -101 Level Cleveland Center
Fri 09:52:59 AM 39.9647 -80.3283 138° Southeast 455 524 34,800 -252 Descending Cleveland Center
Fri 09:53:59 AM 39.8686 -80.2153 138° Southeast 455 524 34,500 -650 Descending Cleveland Center
Fri 09:54:59 AM 39.7744 -80.1050 138° Southeast 460 529 33,500 -1,400 Descending Cleveland Center
Fri 09:55:59 AM 39.6781 -79.9950 139° Southeast 460 529 31,700 -1,685 Descending Cleveland Center
Fri 09:57:25 AM 39.5450 -79.8411 138° Southeast 460 529 29,400 -1,500 Descending Washington Center
Fri 09:58:23 AM 39.5003 -79.6850 110° East 450 518 28,100 -1,109 Descending Washington Center
Fri 09:59:24 AM 39.4914 -79.5153 94° East 445 512 27,200 -541 Descending Washington Center
Fri 10:00:25 AM 39.4758 -79.3475 97° East 463 533 27,000 -101 Descending Washington Center
Fri 10:01:23 AM 39.4356 -79.1681 106° East 469 540 27,000 -101 Level Washington Center
Fri 10:02:24 AM 39.4006 -79.0106 106° East 464 534 26,800 -1,279 Descending Washington Center
Fri 10:03:25 AM 39.3714 -78.8617 104° East 451 519 24,400 -3,197 Descending Washington Center
Fri 10:04:26 AM 39.3442 -78.7100 103° East 439 505 20,300 -4,220 Descending Washington Center
Fri 10:05:23 AM 39.3164 -78.5667 104° East 428 493 16,100 -3,661 Descending Washington Center
Fri 10:06:24 AM 39.2986 -78.4372 100° East 395 455 13,100 -1,820 Descending Washington Center
Fri 10:07:25 AM 39.2742 -78.3289 106° East 348 400 12,400 -1,041 Descending Washington Center
Fri 10:08:25 AM 39.2200 -78.2358 127° Southeast 313 360 11,000 -1,400 Descending Washington Center
Fri 10:09:25 AM 39.2178 -78.1394 92° East 281 323 9,600 -2,186 Descending Washington Center
Fri 10:10:23 AM 39.2197 -78.0483 88° East 269 310 6,700 -2,288 Descending Washington Center
Fri 10:11:23 AM 39.2217 -77.9572 88° East 259 298 5,100 -843 Descending Washington Center
Fri 10:12:24 AM 39.2253 -77.8689 87° East 247 284 5,000 -50 Descending Washington Center
Fri 10:13:24 AM 39.2292 -77.7806 87° East 247 284 5,000  Level Washington Center
Fri 10:14:25 AM 39.2161 -77.6972 101° East 241 277 5,000 -496 Level Washington Center
Fri 10:15:25 AM 39.2050 -77.6164 100° East 235 270 4,000 -785 Descending Washington Center
Fri 10:16:12 AM 39.1833 -77.5667 119° Southeast 211 243 3,600 -579 Descending Potomac TRACON
Fri 10:17:19 AM 39.1333 -77.5000 134° Southeast 215 247 2,900 -661 Descending Potomac TRACON
Fri 10:18:19 AM 39.0833 -77.4667 153° Southeast 211 243 2,200 -650 Descending Potomac TRACON
Fri 10:19:19 AM 39.0333 -77.4667 180° South 162 186 1,600 -667 Descending Potomac TRACON
Fri 10:20:25 AM 39.0000 -77.4667 180° South 144 166 800 -727 Descending Potomac TRACON

Login

Don't have an account? Register now (free) for customized features, flight alerts, and more!